createdAt,value
2022-11-14T00:00:47.061Z,31.38
2022-11-14T00:03:32.608Z,30.35
2022-11-14T00:06:19.712Z,28.52
2022-11-14T00:09:05.235Z,32.58
2022-11-14T00:11:50.680Z,26.08
2022-11-14T00:14:36.746Z,30.98
2022-11-14T00:17:22.484Z,31.23
2022-11-14T00:20:10.599Z,24.80
2022-11-14T00:22:56.837Z,27.58
2022-11-14T00:25:44.220Z,27.38
2022-11-14T00:28:30.464Z,29.08
2022-11-14T00:31:16.284Z,26.05
2022-11-14T00:34:01.832Z,25.38
2022-11-14T00:36:47.471Z,22.80
2022-11-14T00:39:33.139Z,23.85
2022-11-14T00:42:18.753Z,25.05
2022-11-14T00:45:04.795Z,22.45
2022-11-14T00:47:50.061Z,21.70
2022-11-14T00:50:35.780Z,21.23
2022-11-14T00:53:21.643Z,21.75
2022-11-14T00:56:07.787Z,21.27
2022-11-14T00:58:53.513Z,22.33
2022-11-14T01:01:39.133Z,28.40
2022-11-14T01:04:25.033Z,30.95
2022-11-14T01:07:11.032Z,28.42
2022-11-14T01:09:56.561Z,24.10
2022-11-14T01:12:42.261Z,22.55
2022-11-14T01:15:27.892Z,21.88
2022-11-14T01:18:17.085Z,18.75
2022-11-14T01:21:06.212Z,20.95
2022-11-14T01:23:52.256Z,22.67
2022-11-14T01:26:37.506Z,21.35
2022-11-14T01:29:23.800Z,22.13
2022-11-14T01:32:09.303Z,19.85
2022-11-14T01:34:55.065Z,23.48
2022-11-14T01:37:40.829Z,42.80
2022-11-14T01:40:27.437Z,27.25
2022-11-14T01:43:18.930Z,25.40
2022-11-14T01:46:15.236Z,25.60
2022-11-14T01:49:02.737Z,26.20
2022-11-14T01:52:19.398Z,33.13
2022-11-14T01:55:09.659Z,24.88
2022-11-14T01:57:57.242Z,26.77
2022-11-14T02:00:43.934Z,26.15
2022-11-14T02:03:30.220Z,26.83
2022-11-14T02:06:20.956Z,27.55
2022-11-14T02:09:07.908Z,31.13
2022-11-14T02:11:55.028Z,26.45
2022-11-14T02:14:45.331Z,30.08
2022-11-14T02:17:31.360Z,23.55
2022-11-14T02:20:23.298Z,26.65
2022-11-14T02:23:12.859Z,22.63
2022-11-14T02:25:58.817Z,29.45
2022-11-14T02:28:47.307Z,31.40
2022-11-14T02:31:33.897Z,29.77
2022-11-14T02:34:20.350Z,30.67
2022-11-14T02:37:06.573Z,22.88
2022-11-14T02:39:52.043Z,26.30
2022-11-14T02:45:23.191Z,23.60
2022-11-14T02:48:08.859Z,22.65
2022-11-14T02:50:54.581Z,26.63
2022-11-14T02:53:40.194Z,30.67
2022-11-14T02:56:25.797Z,24.73
2022-11-14T02:59:11.447Z,31.25
2022-11-14T03:01:57.152Z,33.05
2022-11-14T03:04:43.332Z,47.42
2022-11-14T03:07:29.257Z,45.42
2022-11-14T03:10:15.281Z,28.38
2022-11-14T03:13:00.999Z,26.83
2022-11-14T03:15:46.783Z,26.33
2022-11-14T03:18:32.357Z,33.67
2022-11-14T03:21:21.159Z,38.17
2022-11-14T03:24:07.039Z,35.47
2022-11-14T03:26:52.543Z,38.38
2022-11-14T03:29:38.304Z,40.70
2022-11-14T03:32:23.900Z,35.22
2022-11-14T03:35:10.042Z,20.17
2022-11-14T03:37:56.807Z,21.33
2022-11-14T03:40:42.976Z,18.55
2022-11-14T03:43:33.418Z,15.63
2022-11-14T03:46:18.940Z,19.58
2022-11-14T03:49:04.644Z,20.35
2022-11-14T03:54:36.660Z,26.30
2022-11-14T03:57:22.256Z,23.25
2022-11-14T04:00:08.985Z,19.20
2022-11-14T04:02:55.982Z,20.85
2022-11-14T04:05:45.332Z,17.50
2022-11-14T04:08:31.916Z,15.55
2022-11-14T04:11:18.926Z,15.45
2022-11-14T04:14:04.509Z,18.05
2022-11-14T04:16:50.618Z,21.65
2022-11-14T04:19:36.685Z,16.23
2022-11-14T04:22:22.384Z,13.80
2022-11-14T04:25:09.353Z,14.05
2022-11-14T04:27:55.307Z,14.07
2022-11-14T04:30:41.169Z,26.30
2022-11-14T04:33:27.491Z,14.27
2022-11-14T04:36:12.768Z,14.70
2022-11-14T04:38:58.580Z,13.68
2022-11-14T04:41:44.377Z,13.40
2022-11-14T04:44:30.209Z,15.98
2022-11-14T04:47:15.829Z,16.23
2022-11-14T04:50:01.528Z,14.85
2022-11-14T04:52:46.893Z,12.73
2022-11-14T04:55:32.597Z,8.32
2022-11-14T04:58:18.334Z,17.33
2022-11-14T05:01:11.077Z,23.20
2022-11-14T05:03:56.948Z,31.05
2022-11-14T05:06:42.782Z,17.42
2022-11-14T05:09:28.884Z,10.40
2022-11-14T05:12:14.543Z,18.13
2022-11-14T05:15:00.290Z,19.42
2022-11-14T05:17:46.355Z,36.30
2022-11-14T05:20:32.072Z,31.55
2022-11-14T05:23:22.619Z,18.17
2022-11-14T05:26:10.968Z,14.95
2022-11-14T05:28:56.737Z,17.20
2022-11-14T05:31:42.296Z,17.67
2022-11-14T05:34:28.090Z,16.45
2022-11-14T05:37:13.880Z,15.23
2022-11-14T05:39:59.337Z,19.02
2022-11-14T05:42:45.063Z,9.40
2022-11-14T05:45:31.347Z,12.57
2022-11-14T05:48:16.624Z,16.88
2022-11-14T05:51:05.408Z,12.48
2022-11-14T05:53:51.097Z,11.00
2022-11-14T05:56:36.794Z,10.73
2022-11-14T05:59:22.357Z,11.10
2022-11-14T06:02:08.125Z,13.60
2022-11-14T06:04:54.016Z,11.18
2022-11-14T06:07:39.837Z,17.23
2022-11-14T06:10:25.826Z,11.15
2022-11-14T06:13:11.395Z,12.02
2022-11-14T06:16:01.212Z,23.63
2022-11-14T06:18:47.192Z,13.48
2022-11-14T06:21:32.870Z,12.07
2022-11-14T06:24:18.804Z,15.45
2022-11-14T06:27:04.310Z,14.80
2022-11-14T06:29:50.009Z,10.35
2022-11-14T06:35:23.717Z,12.43
2022-11-14T06:38:09.197Z,13.70
2022-11-14T06:41:21.939Z,23.45
2022-11-14T06:44:08.620Z,17.63
2022-11-14T06:46:54.506Z,20.45
2022-11-14T06:49:40.800Z,14.63
2022-11-14T06:52:27.311Z,12.15
2022-11-14T06:55:13.104Z,14.48
2022-11-14T06:57:58.708Z,13.05
2022-11-14T07:00:44.419Z,14.63
2022-11-14T07:03:30.611Z,14.70
2022-11-14T07:06:24.888Z,14.52
2022-11-14T07:09:10.978Z,13.70
2022-11-14T07:11:56.236Z,13.52
2022-11-14T07:14:41.772Z,12.43
2022-11-14T07:17:31.178Z,13.65
2022-11-14T07:20:18.603Z,15.95
2022-11-14T07:23:04.324Z,15.05
2022-11-14T07:25:50.478Z,13.43
2022-11-14T07:28:37.748Z,12.38
2022-11-14T07:31:25.966Z,13.73
2022-11-14T07:34:11.925Z,13.20
2022-11-14T07:36:57.812Z,13.57
2022-11-14T07:39:43.305Z,15.77
2022-11-14T07:42:29.953Z,18.17
2022-11-14T07:45:15.788Z,14.82
2022-11-14T07:48:02.525Z,10.45
2022-11-14T07:50:48.103Z,14.18
2022-11-14T07:53:35.379Z,15.20
2022-11-14T07:56:22.216Z,15.32
2022-11-14T07:59:08.200Z,13.32
2022-11-14T08:01:53.760Z,17.58
2022-11-14T08:04:39.380Z,11.48
2022-11-14T08:07:25.157Z,17.83
2022-11-14T08:10:13.580Z,14.90
2022-11-14T08:13:25.304Z,23.95
2022-11-14T08:16:12.826Z,13.65
2022-11-14T08:18:59.376Z,16.65
2022-11-14T08:21:45.666Z,13.32
2022-11-14T08:24:31.112Z,9.52
2022-11-14T08:27:16.814Z,14.02
2022-11-14T08:30:02.361Z,13.60
2022-11-14T08:32:48.029Z,11.38
2022-11-14T08:35:34.273Z,11.15
2022-11-14T08:38:22.304Z,10.68
2022-11-14T08:41:14.808Z,14.45
2022-11-14T08:44:00.865Z,10.52
2022-11-14T08:46:46.611Z,8.90
2022-11-14T08:49:32.491Z,11.88
2022-11-14T08:52:18.143Z,10.48
2022-11-14T08:55:04.143Z,11.68
2022-11-14T08:57:52.951Z,10.45
2022-11-14T09:00:39.232Z,8.48
2022-11-14T09:03:25.110Z,12.35
2022-11-14T09:06:11.257Z,21.40
2022-11-14T09:08:56.684Z,11.60
2022-11-14T09:11:42.249Z,8.63
2022-11-14T09:14:27.894Z,11.43
2022-11-14T09:17:13.807Z,13.38
2022-11-14T09:19:59.326Z,9.05
2022-11-14T09:22:46.663Z,11.27
2022-11-14T09:25:32.222Z,7.15
2022-11-14T09:28:18.007Z,8.70
2022-11-14T09:31:06.730Z,17.08
2022-11-14T09:33:53.130Z,5.90
2022-11-14T09:36:38.790Z,12.52
2022-11-14T09:39:24.430Z,10.98
2022-11-14T09:42:36.364Z,11.77
2022-11-14T09:45:22.395Z,15.95
2022-11-14T09:51:09.096Z,16.02
2022-11-14T09:54:27.299Z,16.57
2022-11-14T09:57:16.903Z,30.75
2022-11-14T10:00:04.026Z,30.77
2022-11-14T10:03:14.641Z,20.17
2022-11-14T10:06:18.957Z,14.02
2022-11-14T10:09:30.932Z,22.63
2022-11-14T10:12:16.541Z,23.08
2022-11-14T10:15:11.310Z,22.30
2022-11-14T10:18:23.710Z,20.15
2022-11-14T10:21:45.396Z,25.98
2022-11-14T10:24:34.095Z,22.65
2022-11-14T10:27:31.071Z,24.48
2022-11-14T10:30:19.119Z,28.35
2022-11-14T10:33:26.865Z,22.65
2022-11-14T10:36:30.422Z,23.67
2022-11-14T10:39:35.098Z,18.13
2022-11-14T10:42:32.756Z,27.13
2022-11-14T10:45:24.167Z,18.63
2022-11-14T10:48:38.017Z,16.05
2022-11-14T10:51:33.250Z,19.73
2022-11-14T10:54:28.264Z,15.55
2022-11-14T10:57:20.706Z,29.13
2022-11-14T11:00:15.420Z,22.73
2022-11-14T11:03:01.448Z,22.42
2022-11-14T11:09:00.405Z,13.95
2022-11-14T11:11:56.537Z,12.73
2022-11-14T11:14:43.829Z,14.82
2022-11-14T11:17:35.945Z,17.67
2022-11-14T11:20:39.259Z,18.77
2022-11-14T11:23:27.312Z,15.43
2022-11-14T11:26:29.054Z,14.02
2022-11-14T11:29:19.824Z,29.17
2022-11-14T11:32:07.866Z,15.10
2022-11-14T11:34:53.528Z,15.50
2022-11-14T11:37:44.067Z,15.80
2022-11-14T11:40:30.617Z,12.07
2022-11-14T11:43:38.733Z,16.55
2022-11-14T11:46:53.449Z,14.68
2022-11-14T11:49:53.922Z,17.92
2022-11-14T11:52:59.492Z,15.73
2022-11-14T11:55:52.361Z,20.00
2022-11-14T11:59:14.996Z,17.50
2022-11-14T12:02:21.527Z,20.42
2022-11-14T12:05:07.640Z,16.55
2022-11-14T12:08:04.704Z,21.40
2022-11-14T12:10:52.489Z,20.55
2022-11-14T12:13:50.219Z,17.50
2022-11-14T12:16:58.197Z,20.95
2022-11-14T12:19:49.757Z,19.63
2022-11-14T12:23:13.694Z,21.65
2022-11-14T12:25:59.543Z,15.77
2022-11-14T12:29:25.182Z,31.45
2022-11-14T12:32:17.319Z,35.63
2022-11-14T12:35:08.042Z,21.05
2022-11-14T12:37:56.274Z,19.38
2022-11-14T12:40:49.417Z,38.00
2022-11-14T12:43:42.940Z,21.48
2022-11-14T12:46:48.932Z,23.50
2022-11-14T12:49:47.237Z,31.30
2022-11-14T12:52:44.818Z,18.70
2022-11-14T12:55:30.850Z,19.85
2022-11-14T12:58:36.262Z,20.20
2022-11-14T13:01:47.872Z,14.13
2022-11-14T13:04:56.873Z,17.38
2022-11-14T13:08:20.515Z,17.52
2022-11-14T13:11:59.453Z,23.63
2022-11-14T13:15:09.555Z,18.80
2022-11-14T13:18:42.059Z,19.83
2022-11-14T13:21:48.197Z,25.98
2022-11-14T13:25:11.225Z,21.95
2022-11-14T13:28:37.978Z,19.58
2022-11-14T13:31:25.940Z,16.80
2022-11-14T13:34:47.599Z,24.92
2022-11-14T13:38:14.370Z,30.55
2022-11-14T13:41:08.229Z,26.27
2022-11-14T13:44:28.852Z,21.95
2022-11-14T13:47:42.439Z,25.40
2022-11-14T13:50:36.763Z,29.35
2022-11-14T13:53:26.410Z,23.27
2022-11-14T13:56:23.505Z,25.20
2022-11-14T13:59:27.917Z,34.25
2022-11-14T14:02:31.519Z,26.23
2022-11-14T14:05:34.747Z,23.95
2022-11-14T14:08:34.948Z,26.63
2022-11-14T14:11:47.259Z,25.08
2022-11-14T14:14:49.233Z,27.52
2022-11-14T14:17:40.720Z,22.00
2022-11-14T14:20:44.069Z,23.33
2022-11-14T14:24:01.762Z,24.15
2022-11-14T14:26:55.807Z,17.73
2022-11-14T14:29:43.905Z,25.52
2022-11-14T14:32:29.738Z,31.60
2022-11-14T14:35:39.106Z,28.83
2022-11-14T14:38:28.372Z,19.25
2022-11-14T14:41:18.133Z,25.08
2022-11-14T14:44:03.991Z,21.95
2022-11-14T14:46:50.007Z,25.88
2022-11-14T14:49:37.455Z,20.95
2022-11-14T14:52:30.804Z,27.67
2022-11-14T14:55:32.665Z,31.92
2022-11-14T14:58:22.712Z,37.03
2022-11-14T15:01:17.556Z,34.42
2022-11-14T15:04:06.988Z,24.83
2022-11-14T15:06:56.060Z,29.98
2022-11-14T15:09:54.641Z,23.67
2022-11-14T15:12:43.374Z,23.67
2022-11-14T15:15:30.243Z,34.42
2022-11-14T15:18:28.496Z,37.03
2022-11-14T15:21:27.322Z,25.83
2022-11-14T15:24:18.771Z,19.95
2022-11-14T15:27:11.640Z,32.75
2022-11-14T15:30:01.639Z,32.75
2022-11-14T15:32:52.941Z,45.00
2022-11-14T15:35:39.820Z,46.22
2022-11-14T15:38:43.683Z,35.05
2022-11-14T15:47:28.584Z,34.55
2022-11-14T15:50:14.464Z,32.45
2022-11-14T15:53:07.265Z,29.73
2022-11-14T15:55:52.904Z,34.10
2022-11-14T15:58:38.492Z,34.65
2022-11-14T16:01:26.193Z,29.10
2022-11-14T16:04:24.786Z,26.80
2022-11-14T16:07:17.253Z,32.08
2022-11-14T16:10:03.209Z,30.92
2022-11-14T16:12:52.802Z,39.53
2022-11-14T16:15:38.918Z,56.45
2022-11-14T16:18:24.637Z,38.03
2022-11-14T16:21:16.379Z,29.52
2022-11-14T16:24:04.161Z,27.83
2022-11-14T16:26:52.671Z,30.45
2022-11-14T16:29:38.368Z,29.58
2022-11-14T16:32:26.644Z,34.83
2022-11-14T16:35:17.680Z,41.90
2022-11-14T16:38:03.674Z,47.65
2022-11-14T16:40:49.492Z,33.75
2022-11-14T16:43:35.465Z,34.95
2022-11-14T16:46:21.425Z,47.15
2022-11-14T16:49:06.958Z,44.42
2022-11-14T16:51:55.857Z,29.77
2022-11-14T16:54:41.166Z,32.40
2022-11-14T16:57:27.338Z,25.70
2022-11-14T17:00:13.731Z,31.02
2022-11-14T17:03:00.835Z,34.85
2022-11-14T17:05:48.192Z,61.45
2022-11-14T17:08:33.870Z,42.92
2022-11-14T17:11:19.523Z,28.15
2022-11-14T17:14:05.306Z,30.98
2022-11-14T17:16:50.956Z,31.77
2022-11-14T17:19:38.965Z,30.30
2022-11-14T17:22:24.986Z,35.97
2022-11-14T17:25:11.655Z,26.95
2022-11-14T17:27:57.017Z,30.73
2022-11-14T17:30:43.517Z,37.90
2022-11-14T17:33:29.137Z,36.47
2022-11-14T17:36:15.378Z,52.20
2022-11-14T17:39:01.422Z,40.38
2022-11-14T17:41:47.227Z,41.80
2022-11-14T17:44:32.546Z,45.00
2022-11-14T17:47:18.227Z,36.83
2022-11-14T17:50:04.378Z,37.85
2022-11-14T17:52:50.027Z,39.38
2022-11-14T17:55:35.590Z,42.33
2022-11-14T17:58:23.895Z,44.70
2022-11-14T18:01:11.635Z,37.33
2022-11-14T18:04:00.512Z,38.80
2022-11-14T18:06:48.999Z,37.30
2022-11-14T18:09:34.876Z,34.70
2022-11-14T18:12:20.617Z,41.13
2022-11-14T18:15:07.492Z,38.00
2022-11-14T18:17:53.592Z,21.45
2022-11-14T18:20:39.699Z,42.28
2022-11-14T18:23:27.432Z,39.05
2022-11-14T18:26:16.146Z,44.03
2022-11-14T18:29:02.419Z,40.28
2022-11-14T18:31:48.453Z,44.25
2022-11-14T18:34:37.002Z,41.40
2022-11-14T18:37:23.248Z,40.55
2022-11-14T18:40:16.328Z,43.67
2022-11-14T18:43:02.556Z,41.03
2022-11-14T18:45:48.268Z,47.78
2022-11-14T18:48:35.285Z,36.83
2022-11-14T18:51:23.206Z,51.42
2022-11-14T18:54:13.310Z,36.42
2022-11-14T18:56:59.353Z,47.97
2022-11-14T18:59:45.434Z,42.63
2022-11-14T19:02:31.249Z,52.20
2022-11-14T19:05:17.475Z,49.78
2022-11-14T19:08:03.333Z,44.95
2022-11-14T19:10:48.968Z,46.58
2022-11-14T19:13:35.175Z,42.25
2022-11-14T19:16:20.885Z,40.15
2022-11-14T19:19:08.027Z,41.25
2022-11-14T19:21:55.063Z,55.88
2022-11-14T19:24:43.032Z,50.63
2022-11-14T19:27:28.776Z,47.55
2022-11-14T19:33:04.652Z,167.77
2022-11-14T19:35:50.490Z,40.78
2022-11-14T19:38:36.315Z,60.95
2022-11-14T19:44:08.200Z,90.55
2022-11-14T19:46:53.707Z,66.55
2022-11-14T19:49:39.411Z,37.63
2022-11-14T19:52:27.543Z,42.95
2022-11-14T19:55:13.658Z,44.42
2022-11-14T19:57:59.689Z,39.90
2022-11-14T20:00:45.489Z,37.13
2022-11-14T20:03:32.157Z,54.53
2022-11-14T20:06:24.109Z,55.03
2022-11-14T20:09:12.211Z,43.45
2022-11-14T20:11:58.157Z,41.50
2022-11-14T20:14:43.719Z,39.38
2022-11-14T20:17:29.887Z,49.05
2022-11-14T20:20:15.647Z,38.47
2022-11-14T20:23:01.517Z,38.85
2022-11-14T20:25:52.753Z,40.90
2022-11-14T20:28:40.365Z,33.97
2022-11-14T20:31:28.630Z,42.70
2022-11-14T20:34:14.648Z,37.42
2022-11-14T20:37:15.647Z,35.42
2022-11-14T20:40:01.630Z,44.58
2022-11-14T20:42:51.694Z,35.13
2022-11-14T20:45:37.362Z,35.78
2022-11-14T20:48:23.106Z,40.72
2022-11-14T20:51:20.773Z,40.95
2022-11-14T20:54:09.665Z,34.33
2022-11-14T20:56:55.713Z,31.77
2022-11-14T20:59:41.435Z,59.78
2022-11-14T21:02:27.254Z,33.00
2022-11-14T21:05:12.853Z,43.72
2022-11-14T21:07:58.551Z,36.83
2022-11-14T21:10:46.649Z,30.17
2022-11-14T21:13:54.009Z,31.10
2022-11-14T21:16:39.843Z,39.80
2022-11-14T21:19:26.728Z,39.65
2022-11-14T21:22:13.591Z,39.95
2022-11-14T21:24:59.617Z,90.72
2022-11-14T21:27:45.228Z,48.38
2022-11-14T21:30:32.319Z,55.72
2022-11-14T21:33:17.623Z,41.13
2022-11-14T21:36:22.988Z,42.60
2022-11-14T21:39:14.914Z,38.75
2022-11-14T21:42:01.411Z,38.80
2022-11-14T21:44:46.968Z,29.58
2022-11-14T21:47:34.062Z,27.52
2022-11-14T21:50:22.121Z,33.03
2022-11-14T21:53:15.971Z,27.65
2022-11-14T21:56:21.207Z,28.95
2022-11-14T21:59:15.035Z,30.08
2022-11-14T22:02:20.002Z,26.42
2022-11-14T22:05:07.756Z,29.52
2022-11-14T22:07:53.219Z,32.08
2022-11-14T22:10:40.005Z,47.92
2022-11-14T22:13:25.613Z,31.35
2022-11-14T22:16:11.743Z,43.53
2022-11-14T22:19:04.489Z,27.45
2022-11-14T22:21:51.186Z,40.63
2022-11-14T22:24:36.797Z,44.42
2022-11-14T22:27:22.569Z,50.45
2022-11-14T22:30:08.770Z,46.00
2022-11-14T22:32:54.363Z,42.92
2022-11-14T22:35:39.986Z,35.35
2022-11-14T22:38:29.033Z,53.78
2022-11-14T22:41:15.851Z,36.95
2022-11-14T22:44:02.132Z,40.63
2022-11-14T22:46:47.555Z,42.13
2022-11-14T22:49:33.116Z,56.15
2022-11-14T22:52:18.943Z,71.03
2022-11-14T22:55:05.052Z,64.97
2022-11-14T22:57:50.439Z,51.85
2022-11-14T23:00:36.205Z,66.45
2022-11-14T23:06:13.411Z,32.33
2022-11-14T23:09:00.087Z,38.95
2022-11-14T23:11:45.587Z,36.35
2022-11-14T23:14:31.137Z,33.63
2022-11-14T23:17:16.989Z,37.03
2022-11-14T23:20:02.685Z,35.50
2022-11-14T23:22:48.194Z,32.60
2022-11-14T23:25:36.447Z,37.28
2022-11-14T23:28:22.142Z,32.65
2022-11-14T23:31:08.778Z,41.55
2022-11-14T23:33:55.818Z,31.02
2022-11-14T23:36:41.494Z,32.15
2022-11-14T23:39:27.086Z,35.88
2022-11-14T23:42:12.628Z,55.35
2022-11-14T23:44:58.450Z,30.52
2022-11-14T23:47:46.231Z,30.25
2022-11-14T23:50:31.985Z,37.70
2022-11-14T23:53:17.779Z,25.98
2022-11-14T23:56:03.547Z,60.70
2022-11-14T23:58:48.745Z,30.27
